createdAt,value
2022-09-04T00:00:32.695Z,1002.4
2022-09-04T00:01:48.986Z,1002.4
2022-09-04T00:03:05.287Z,1002.4
2022-09-04T00:04:21.568Z,1002.4
2022-09-04T00:05:36.873Z,1002.4
2022-09-04T00:06:53.165Z,1002.4
2022-09-04T00:08:09.458Z,1002.4
2022-09-04T00:09:25.756Z,1002.4
2022-09-04T00:11:58.351Z,1002.4
2022-09-04T00:13:14.632Z,1002.5
2022-09-04T00:14:30.927Z,1002.4
2022-09-04T00:15:46.245Z,1002.5
2022-09-04T00:17:01.542Z,1002.5
2022-09-04T00:18:16.869Z,1002.5
2022-09-04T00:19:32.167Z,1002.5
2022-09-04T00:20:48.474Z,1002.5
2022-09-04T00:22:04.764Z,1002.5
2022-09-04T00:23:21.045Z,1002.5
2022-09-04T00:24:37.333Z,1002.5
2022-09-04T00:25:53.630Z,1002.5
2022-09-04T00:27:09.935Z,1002.5
2022-09-04T00:28:26.221Z,1002.5
2022-09-04T00:29:42.516Z,1002.5
2022-09-04T00:30:58.810Z,1002.5
2022-09-04T00:32:15.098Z,1002.5
2022-09-04T00:33:31.398Z,1002.6
2022-09-04T00:34:47.690Z,1002.5
2022-09-04T00:36:02.984Z,1002.5
2022-09-04T00:37:19.284Z,1002.5
2022-09-04T00:38:35.570Z,1002.5
2022-09-04T00:39:51.872Z,1002.5
2022-09-04T00:41:08.160Z,1002.5
2022-09-04T00:42:24.453Z,1002.5
2022-09-04T00:43:40.737Z,1002.5
2022-09-04T00:44:56.050Z,1002.5
2022-09-04T00:46:12.351Z,1002.5
2022-09-04T00:47:27.675Z,1002.5
2022-09-04T00:48:42.969Z,1002.5
2022-09-04T00:49:59.262Z,1002.5
2022-09-04T00:51:15.552Z,1002.5
2022-09-04T00:52:31.850Z,1002.6
2022-09-04T00:53:48.148Z,1002.6
2022-09-04T00:55:04.000Z,1002.6
2022-09-04T00:56:20.738Z,1002.5
2022-09-04T00:57:37.026Z,1002.6
2022-09-04T00:58:53.320Z,1002.6
2022-09-04T01:00:09.596Z,1002.6
2022-09-04T01:01:25.907Z,1002.6
2022-09-04T01:02:42.193Z,1002.6
2022-09-04T01:03:58.494Z,1002.6
2022-09-04T01:05:13.803Z,1002.6
2022-09-04T01:06:30.089Z,1002.6
2022-09-04T01:09:02.673Z,1002.6
2022-09-04T01:10:18.966Z,1002.6
2022-09-04T01:11:35.255Z,1002.6
2022-09-04T01:12:51.545Z,1002.6
2022-09-04T01:14:07.838Z,1002.6
2022-09-04T01:15:23.150Z,1002.6
2022-09-04T01:16:38.455Z,1002.6
2022-09-04T01:17:54.763Z,1002.6
2022-09-04T01:19:11.048Z,1002.6
2022-09-04T01:20:27.332Z,1002.6
2022-09-04T01:21:43.629Z,1002.7
2022-09-04T01:22:59.929Z,1002.7
2022-09-04T01:24:16.208Z,1002.7
2022-09-04T01:25:31.522Z,1002.7
2022-09-04T01:26:47.824Z,1002.7
2022-09-04T01:28:04.108Z,1002.8
2022-09-04T01:29:20.412Z,1002.7
2022-09-04T01:30:36.691Z,1002.7
2022-09-04T01:31:52.982Z,1002.8
2022-09-04T01:33:09.275Z,1002.8
2022-09-04T01:34:25.569Z,1002.8
2022-09-04T01:35:41.863Z,1002.8
2022-09-04T01:36:58.155Z,1002.8
2022-09-04T01:38:14.456Z,1002.9
2022-09-04T01:39:30.755Z,1002.8
2022-09-04T01:40:47.048Z,1002.8
2022-09-04T01:42:02.346Z,1002.9
2022-09-04T01:43:17.665Z,1002.9
2022-09-04T01:44:32.974Z,1002.8
2022-09-04T01:45:48.273Z,1002.8
2022-09-04T01:47:03.597Z,1002.9
2022-09-04T01:48:18.913Z,1002.9
2022-09-04T01:49:35.190Z,1002.9
2022-09-04T01:50:51.480Z,1002.9
2022-09-04T01:52:07.776Z,1002.9
2022-09-04T01:53:24.078Z,1002.9
2022-09-04T01:54:40.363Z,1002.9
2022-09-04T01:55:56.658Z,1002.9
2022-09-04T01:57:12.949Z,1002.9
2022-09-04T01:58:29.240Z,1002.9
2022-09-04T01:59:45.534Z,1002.9
2022-09-04T02:01:01.822Z,1003
2022-09-04T02:02:18.128Z,1002.9
2022-09-04T02:03:34.408Z,1003
2022-09-04T02:04:49.728Z,1003
2022-09-04T02:06:06.026Z,1003
2022-09-04T02:07:22.304Z,1003
2022-09-04T02:08:38.601Z,1003
2022-09-04T02:09:54.902Z,1003
2022-09-04T02:11:11.192Z,1003
2022-09-04T02:12:27.485Z,1003
2022-09-04T02:13:42.791Z,1003
2022-09-04T02:14:58.097Z,1003
2022-09-04T02:16:14.388Z,1003
2022-09-04T02:17:30.697Z,1003
2022-09-04T02:18:46.970Z,1003
2022-09-04T02:20:03.267Z,1003.1
2022-09-04T02:21:19.553Z,1003
2022-09-04T02:22:35.857Z,1003
2022-09-04T02:23:52.144Z,1003
2022-09-04T02:25:08.433Z,1003
2022-09-04T02:26:24.740Z,1003.1
2022-09-04T02:27:41.026Z,1003.1
2022-09-04T02:28:57.326Z,1003
2022-09-04T02:30:13.612Z,1003
2022-09-04T02:31:28.912Z,1003.1
2022-09-04T02:32:45.215Z,1003.2
2022-09-04T02:34:01.504Z,1003.2
2022-09-04T02:35:17.788Z,1003.1
2022-09-04T02:36:34.085Z,1003.2
2022-09-04T02:37:50.383Z,1003.1
2022-09-04T02:39:06.683Z,1003.2
2022-09-04T02:40:21.993Z,1003.2
2022-09-04T02:41:37.291Z,1003.2
2022-09-04T02:42:53.581Z,1003.2
2022-09-04T02:44:09.880Z,1003.2
2022-09-04T02:45:26.179Z,1003.3
2022-09-04T02:46:42.473Z,1003.2
2022-09-04T02:47:58.767Z,1003.2
2022-09-04T02:49:15.057Z,1003.3
2022-09-04T02:50:31.345Z,1003.2
2022-09-04T02:51:47.627Z,1003.2
2022-09-04T02:53:03.922Z,1003.3
2022-09-04T02:54:20.228Z,1003.3
2022-09-04T02:55:36.516Z,1003.3
2022-09-04T02:56:52.811Z,1003.3
2022-09-04T02:58:08.121Z,1003.3
2022-09-04T02:59:24.407Z,1003.3
2022-09-04T03:00:40.705Z,1003.3
2022-09-04T03:01:56.987Z,1003.3
2022-09-04T03:03:13.281Z,1003.3
2022-09-04T03:04:29.572Z,1003.3
2022-09-04T03:05:45.873Z,1003.3
2022-09-04T03:07:02.164Z,1003.3
2022-09-04T03:08:18.461Z,1003.3
2022-09-04T03:09:34.758Z,1003.3
2022-09-04T03:10:51.033Z,1003.4
2022-09-04T03:12:07.324Z,1003.4
2022-09-04T03:13:23.620Z,1003.3
2022-09-04T03:14:38.936Z,1003.4
2022-09-04T03:15:55.221Z,1003.3
2022-09-04T03:17:11.527Z,1003.3
2022-09-04T03:18:27.814Z,1003.4
2022-09-04T03:19:44.096Z,1003.4
2022-09-04T03:21:00.393Z,1003.4
2022-09-04T03:22:16.697Z,1003.3
2022-09-04T03:23:32.983Z,1003.3
2022-09-04T03:24:49.281Z,1003.3
2022-09-04T03:26:05.573Z,1003.3
2022-09-04T03:27:21.849Z,1003.3
2022-09-04T03:28:38.145Z,1003.3
2022-09-04T03:29:54.442Z,1003.3
2022-09-04T03:31:09.745Z,1003.4
2022-09-04T03:32:26.043Z,1003.4
2022-09-04T03:33:42.327Z,1003.4
2022-09-04T03:34:58.626Z,1003.4
2022-09-04T03:36:14.913Z,1003.4
2022-09-04T03:37:31.209Z,1003.3
2022-09-04T03:38:47.498Z,1003.4
2022-09-04T03:40:03.798Z,1003.3
2022-09-04T03:41:20.092Z,1003.4
2022-09-04T03:42:36.377Z,1003.4
2022-09-04T03:43:52.680Z,1003.4
2022-09-04T03:45:08.962Z,1003.4
2022-09-04T03:46:25.264Z,1003.4
2022-09-04T03:47:40.575Z,1003.4
2022-09-04T03:48:56.872Z,1003.4
2022-09-04T03:50:13.160Z,1003.4
2022-09-04T03:51:29.456Z,1003.4
2022-09-04T03:52:45.744Z,1003.4
2022-09-04T03:54:02.026Z,1003.5
2022-09-04T03:55:18.318Z,1003.4
2022-09-04T03:56:34.565Z,1003.4
2022-09-04T03:57:50.806Z,1003.5
2022-09-04T03:59:07.049Z,1003.4
2022-09-04T04:00:23.292Z,1003.5
2022-09-04T04:01:39.539Z,1003.5
2022-09-04T04:02:55.779Z,1003.5
2022-09-04T04:04:11.033Z,1003.5
2022-09-04T04:05:27.286Z,1003.5
2022-09-04T04:06:43.525Z,1003.5
2022-09-04T04:07:59.754Z,1003.5
2022-09-04T04:09:15.997Z,1003.5
2022-09-04T04:10:32.240Z,1003.5
2022-09-04T04:11:48.485Z,1003.6
2022-09-04T04:13:04.721Z,1003.5
2022-09-04T04:14:20.965Z,1003.5
2022-09-04T04:15:37.194Z,1003.5
2022-09-04T04:16:53.438Z,1003.5
2022-09-04T04:18:09.664Z,1003.5
2022-09-04T04:19:25.905Z,1003.5
2022-09-04T04:20:41.162Z,1003.5
2022-09-04T04:21:57.404Z,1003.5
2022-09-04T04:23:13.647Z,1003.6
2022-09-04T04:24:29.891Z,1003.6
2022-09-04T04:25:46.111Z,1003.5
2022-09-04T04:27:02.358Z,1003.5
2022-09-04T04:28:18.593Z,1003.5
2022-09-04T04:29:34.826Z,1003.6
2022-09-04T04:30:51.078Z,1003.6
2022-09-04T04:32:07.301Z,1003.6
2022-09-04T04:33:23.550Z,1003.6
2022-09-04T04:34:39.783Z,1003.6
2022-09-04T04:35:56.033Z,1003.6
2022-09-04T04:37:11.288Z,1003.6
2022-09-04T04:38:27.518Z,1003.7
2022-09-04T04:39:43.756Z,1003.7
2022-09-04T04:40:59.987Z,1003.7
2022-09-04T04:42:16.238Z,1003.8
2022-09-04T04:43:32.468Z,1003.7
2022-09-04T04:44:48.712Z,1003.8
2022-09-04T04:46:04.949Z,1003.8
2022-09-04T04:47:21.187Z,1003.8
2022-09-04T04:48:37.423Z,1003.9
2022-09-04T04:49:53.662Z,1003.9
2022-09-04T04:51:09.896Z,1003.9
2022-09-04T04:52:26.135Z,1004
2022-09-04T04:53:41.400Z,1004
2022-09-04T04:54:57.637Z,1004
2022-09-04T04:56:13.873Z,1004
2022-09-04T04:57:30.104Z,1004.1
2022-09-04T04:58:46.359Z,1004.1
2022-09-04T05:00:02.599Z,1004.1
2022-09-04T05:01:18.820Z,1004.1
2022-09-04T05:02:35.067Z,1004.1
2022-09-04T05:03:51.309Z,1004.1
2022-09-04T05:05:07.543Z,1004.2
2022-09-04T05:06:23.790Z,1004.2
2022-09-04T05:07:40.017Z,1004.2
2022-09-04T05:08:56.255Z,1004.2
2022-09-04T05:10:11.522Z,1004.2
2022-09-04T05:11:27.762Z,1004.3
2022-09-04T05:12:43.991Z,1004.3
2022-09-04T05:14:00.230Z,1004.3
2022-09-04T05:15:16.460Z,1004.3
2022-09-04T05:16:32.717Z,1004.3
2022-09-04T05:17:48.937Z,1004.3
2022-09-04T05:19:05.177Z,1004.3
2022-09-04T05:20:21.426Z,1004.4
2022-09-04T05:21:37.660Z,1004.4
2022-09-04T05:22:53.895Z,1004.4
2022-09-04T05:24:10.148Z,1004.4
2022-09-04T05:25:26.370Z,1004.4
2022-09-04T05:26:41.635Z,1004.5
2022-09-04T05:27:57.863Z,1004.5
2022-09-04T05:29:14.118Z,1004.5
2022-09-04T05:30:30.341Z,1004.5
2022-09-04T05:31:46.580Z,1004.5
2022-09-04T05:33:02.819Z,1004.5
2022-09-04T05:34:19.068Z,1004.5
2022-09-04T05:35:35.296Z,1004.6
2022-09-04T05:36:51.533Z,1004.6
2022-09-04T05:38:07.781Z,1004.6
2022-09-04T05:39:24.024Z,1004.6
2022-09-04T05:40:39.282Z,1004.6
2022-09-04T05:41:55.516Z,1004.6
2022-09-04T05:43:11.746Z,1004.7
2022-09-04T05:44:27.995Z,1004.7
2022-09-04T05:45:44.236Z,1004.7
2022-09-04T05:47:00.470Z,1004.7
2022-09-04T05:48:16.697Z,1004.7
2022-09-04T05:49:32.947Z,1004.7
2022-09-04T05:50:49.176Z,1004.7
2022-09-04T05:52:05.418Z,1004.8
2022-09-04T05:53:21.651Z,1004.8
2022-09-04T05:54:37.902Z,1004.7
2022-09-04T05:55:54.138Z,1004.8
2022-09-04T05:57:09.388Z,1004.7
2022-09-04T05:58:25.640Z,1004.8
2022-09-04T05:59:41.869Z,1004.7
2022-09-04T06:00:58.098Z,1004.8
2022-09-04T06:02:14.356Z,1004.8
2022-09-04T06:03:30.582Z,1004.8
2022-09-04T06:04:46.816Z,1004.8
2022-09-04T06:06:03.063Z,1004.8
2022-09-04T06:07:19.292Z,1004.8
2022-09-04T06:08:35.547Z,1004.8
2022-09-04T06:09:51.784Z,1004.8
2022-09-04T06:11:08.013Z,1004.8
2022-09-04T06:12:24.247Z,1004.8
2022-09-04T06:13:39.514Z,1004.9
2022-09-04T06:14:55.748Z,1004.8
2022-09-04T06:16:11.994Z,1004.9
2022-09-04T06:17:28.222Z,1004.9
2022-09-04T06:18:44.455Z,1004.9
2022-09-04T06:20:00.711Z,1004.9
2022-09-04T06:21:16.935Z,1004.9
2022-09-04T06:22:33.170Z,1004.9
2022-09-04T06:23:49.423Z,1004.9
2022-09-04T06:25:05.660Z,1004.9
2022-09-04T06:26:21.898Z,1004.9
2022-09-04T06:27:38.125Z,1004.9
2022-09-04T06:28:54.368Z,1004.9
2022-09-04T06:30:09.619Z,1004.9
2022-09-04T06:31:25.861Z,1004.9
2022-09-04T06:32:42.096Z,1004.9
2022-09-04T06:33:58.346Z,1004.9
2022-09-04T06:35:14.574Z,1004.9
2022-09-04T06:36:30.825Z,1004.9
2022-09-04T06:37:47.047Z,1004.9
2022-09-04T06:39:03.294Z,1004.8
2022-09-04T06:40:19.534Z,1004.9
2022-09-04T06:41:35.769Z,1004.9
2022-09-04T06:42:52.000Z,1004.9
2022-09-04T06:44:08.257Z,1004.9
2022-09-04T06:45:24.495Z,1004.9
2022-09-04T06:46:39.734Z,1004.9
2022-09-04T06:47:55.970Z,1004.9
2022-09-04T06:49:12.224Z,1004.9
2022-09-04T06:50:28.445Z,1004.9
2022-09-04T06:51:44.698Z,1005
2022-09-04T06:53:00.935Z,1005
2022-09-04T06:54:17.161Z,1004.9
2022-09-04T06:55:33.416Z,1004.9
2022-09-04T06:56:49.637Z,1004.9
2022-09-04T06:58:05.895Z,1005
2022-09-04T06:59:22.132Z,1005
2022-09-04T07:00:38.364Z,1005
2022-09-04T07:01:54.599Z,1005
2022-09-04T07:03:09.848Z,1005
2022-09-04T07:04:26.091Z,1005.1
2022-09-04T07:05:42.337Z,1005.1
2022-09-04T07:06:58.572Z,1005.1
2022-09-04T07:08:14.817Z,1005.1
2022-09-04T07:09:31.053Z,1005.2
2022-09-04T07:10:47.279Z,1005.2
2022-09-04T07:12:03.518Z,1005.2
2022-09-04T07:13:19.771Z,1005.2
2022-09-04T07:14:36.002Z,1005.2
2022-09-04T07:15:52.237Z,1005.2
2022-09-04T07:17:08.473Z,1005.2
2022-09-04T07:18:24.722Z,1005.2
2022-09-04T07:19:39.967Z,1005.2
2022-09-04T07:20:56.215Z,1005.2
2022-09-04T07:22:12.456Z,1005.2
2022-09-04T07:23:28.678Z,1005.2
2022-09-04T07:24:44.917Z,1005.2
2022-09-04T07:26:01.174Z,1005.2
2022-09-04T07:27:17.396Z,1005.2
2022-09-04T07:28:33.634Z,1005.2
2022-09-04T07:29:49.876Z,1005.2
2022-09-04T07:31:06.111Z,1005.3
2022-09-04T07:32:22.352Z,1005.2
2022-09-04T07:33:38.595Z,1005.2
2022-09-04T07:34:54.839Z,1005.2
2022-09-04T07:36:10.081Z,1005.2
2022-09-04T07:37:26.334Z,1005.2
2022-09-04T07:38:42.568Z,1005.2
2022-09-04T07:39:58.811Z,1005.2
2022-09-04T07:41:15.041Z,1005.2
2022-09-04T07:42:31.288Z,1005.2
2022-09-04T07:43:47.527Z,1005.2
2022-09-04T07:45:03.765Z,1005.2
2022-09-04T07:46:19.996Z,1005.2
2022-09-04T07:47:36.230Z,1005.3
2022-09-04T07:48:52.473Z,1005.2
2022-09-04T07:50:08.718Z,1005.2
2022-09-04T07:51:24.946Z,1005.3
2022-09-04T07:52:40.000Z,1005.3
2022-09-04T07:53:56.437Z,1005.3
2022-09-04T07:55:12.674Z,1005.3
2022-09-04T07:56:28.911Z,1005.3
2022-09-04T07:57:45.160Z,1005.3
2022-09-04T07:59:01.393Z,1005.4
2022-09-04T08:00:17.631Z,1005.4
2022-09-04T08:01:33.865Z,1005.4
2022-09-04T08:02:50.112Z,1005.4
2022-09-04T08:04:06.354Z,1005.4
2022-09-04T08:05:22.592Z,1005.5
2022-09-04T08:06:38.815Z,1005.4
2022-09-04T08:07:55.070Z,1005.5
2022-09-04T08:09:10.319Z,1005.5
2022-09-04T08:10:26.559Z,1005.5
2022-09-04T08:11:42.802Z,1005.6
2022-09-04T08:12:59.036Z,1005.5
2022-09-04T08:14:15.273Z,1005.6
2022-09-04T08:15:31.516Z,1005.5
2022-09-04T08:18:03.993Z,1005.5
2022-09-04T08:19:20.234Z,1005.5
2022-09-04T08:20:36.471Z,1005.6
2022-09-04T08:21:52.713Z,1005.6
2022-09-04T08:23:08.950Z,1005.5
2022-09-04T08:24:25.186Z,1005.6
2022-09-04T08:25:40.439Z,1005.6
2022-09-04T08:26:56.673Z,1005.6
2022-09-04T08:28:12.906Z,1005.7
2022-09-04T08:29:29.139Z,1005.6
2022-09-04T08:30:45.388Z,1005.6
2022-09-04T08:32:01.631Z,1005.6
2022-09-04T08:33:17.875Z,1005.6
2022-09-04T08:34:34.105Z,1005.6
2022-09-04T08:35:50.346Z,1005.6
2022-09-04T08:37:06.573Z,1005.7
2022-09-04T08:38:22.830Z,1005.7
2022-09-04T08:39:39.053Z,1005.6
2022-09-04T08:40:55.307Z,1005.6
2022-09-04T08:42:10.551Z,1005.6
2022-09-04T08:43:26.784Z,1005.6
2022-09-04T08:44:43.023Z,1005.7
2022-09-04T08:45:59.262Z,1005.7
2022-09-04T08:47:15.501Z,1005.6
2022-09-04T08:48:31.736Z,1005.7
2022-09-04T08:49:47.980Z,1005.6
2022-09-04T08:51:04.213Z,1005.6
2022-09-04T08:52:20.462Z,1005.6
2022-09-04T08:53:36.690Z,1005.6
2022-09-04T08:54:52.929Z,1005.6
2022-09-04T08:56:09.172Z,1005.6
2022-09-04T08:57:25.418Z,1005.6
2022-09-04T08:58:40.675Z,1005.6
2022-09-04T08:59:56.918Z,1005.6
2022-09-04T09:01:13.155Z,1005.6
2022-09-04T09:02:29.383Z,1005.6
2022-09-04T09:03:45.622Z,1005.6
2022-09-04T09:05:01.854Z,1005.7
2022-09-04T09:06:18.102Z,1005.6
2022-09-04T09:07:34.334Z,1005.6
2022-09-04T09:08:50.569Z,1005.6
2022-09-04T09:10:06.818Z,1005.7
2022-09-04T09:11:23.066Z,1005.6
2022-09-04T09:12:39.303Z,1005.7
2022-09-04T09:13:55.530Z,1005.7
2022-09-04T09:15:10.789Z,1005.6
2022-09-04T09:16:27.033Z,1005.7
2022-09-04T09:17:43.256Z,1005.7
2022-09-04T09:18:59.500Z,1005.7
2022-09-04T09:20:15.750Z,1005.7
2022-09-04T09:21:31.978Z,1005.7
2022-09-04T09:22:48.226Z,1005.7
2022-09-04T09:24:04.454Z,1005.7
2022-09-04T09:25:20.689Z,1005.7
2022-09-04T09:26:36.935Z,1005.6
2022-09-04T09:27:53.176Z,1005.6
2022-09-04T09:29:09.424Z,1005.7
2022-09-04T09:30:25.648Z,1005.7
2022-09-04T09:31:40.907Z,1005.7
2022-09-04T09:32:57.151Z,1005.7
2022-09-04T09:34:13.382Z,1005.7
2022-09-04T09:35:29.630Z,1005.7
2022-09-04T09:36:45.859Z,1005.7
2022-09-04T09:38:02.099Z,1005.7
2022-09-04T09:39:18.343Z,1005.6
2022-09-04T09:40:34.579Z,1005.7
2022-09-04T09:41:50.831Z,1005.7
2022-09-04T09:43:07.068Z,1005.7
2022-09-04T09:44:23.302Z,1005.7
2022-09-04T09:45:39.542Z,1005.7
2022-09-04T09:46:55.774Z,1005.7
2022-09-04T09:48:11.028Z,1005.6
2022-09-04T09:49:27.279Z,1005.7
2022-09-04T09:50:43.521Z,1005.7
2022-09-04T09:51:59.744Z,1005.7
2022-09-04T09:53:15.991Z,1005.7
2022-09-04T09:54:32.220Z,1005.7
2022-09-04T09:55:47.497Z,1005.7
2022-09-04T09:57:03.739Z,1005.7
2022-09-04T09:58:19.958Z,1005.7
2022-09-04T09:59:36.199Z,1005.7
2022-09-04T10:00:52.444Z,1005.7
2022-09-04T10:02:08.687Z,1005.7
2022-09-04T10:03:24.921Z,1005.7
2022-09-04T10:04:41.161Z,1005.8
2022-09-04T10:05:57.406Z,1005.8
2022-09-04T10:07:13.632Z,1005.8
2022-09-04T10:08:29.879Z,1005.8
2022-09-04T10:09:46.122Z,1005.8
2022-09-04T10:11:02.350Z,1005.8
2022-09-04T10:12:17.612Z,1005.8
2022-09-04T10:13:33.847Z,1005.8
2022-09-04T10:14:50.089Z,1005.9
2022-09-04T10:16:06.340Z,1005.8
2022-09-04T10:17:22.567Z,1005.8
2022-09-04T10:18:38.806Z,1005.8
2022-09-04T10:19:55.054Z,1005.8
2022-09-04T10:21:11.295Z,1005.8
2022-09-04T10:22:27.516Z,1005.8
2022-09-04T10:23:43.768Z,1005.9
2022-09-04T10:25:00.010Z,1005.8
2022-09-04T10:26:16.233Z,1005.7
2022-09-04T10:27:32.490Z,1005.7
2022-09-04T10:28:47.743Z,1005.8
2022-09-04T10:30:03.983Z,1005.8
2022-09-04T10:31:20.213Z,1005.7
2022-09-04T10:32:36.446Z,1005.7
2022-09-04T10:33:52.685Z,1005.7
2022-09-04T10:35:08.929Z,1005.7
2022-09-04T10:36:25.170Z,1005.7
2022-09-04T10:37:41.419Z,1005.7
2022-09-04T10:38:57.657Z,1005.7
2022-09-04T10:40:13.877Z,1005.7
2022-09-04T10:41:30.126Z,1005.7
2022-09-04T10:42:46.363Z,1005.7
2022-09-04T10:44:02.613Z,1005.7
2022-09-04T10:45:17.858Z,1005.7
2022-09-04T10:46:34.106Z,1005.7
2022-09-04T10:47:50.329Z,1005.7
2022-09-04T10:49:06.567Z,1005.7
2022-09-04T10:50:22.808Z,1005.7
2022-09-04T10:51:39.048Z,1005.7
2022-09-04T10:52:55.295Z,1005.7
2022-09-04T10:54:11.528Z,1005.8
2022-09-04T10:55:27.782Z,1005.7
2022-09-04T10:56:44.013Z,1005.8
2022-09-04T10:58:00.260Z,1005.8
2022-09-04T10:59:16.487Z,1005.7
2022-09-04T11:00:32.730Z,1005.8
2022-09-04T11:01:47.979Z,1005.8
2022-09-04T11:03:04.230Z,1005.8
2022-09-04T11:04:20.454Z,1005.8
2022-09-04T11:05:36.698Z,1005.8
2022-09-04T11:06:52.942Z,1005.8
2022-09-04T11:08:09.177Z,1005.7
2022-09-04T11:09:25.417Z,1005.7
2022-09-04T11:10:41.649Z,1005.7
2022-09-04T11:11:57.903Z,1005.7
2022-09-04T11:13:14.145Z,1005.7
2022-09-04T11:14:30.367Z,1005.7
2022-09-04T11:15:46.617Z,1005.7
2022-09-04T11:17:02.849Z,1005.7
2022-09-04T11:18:18.100Z,1005.7
2022-09-04T11:19:34.355Z,1005.7
2022-09-04T11:20:50.590Z,1005.7
2022-09-04T11:22:06.826Z,1005.6
2022-09-04T11:23:23.072Z,1005.7
2022-09-04T11:24:39.303Z,1005.7
2022-09-04T11:25:55.535Z,1005.6
2022-09-04T11:27:11.782Z,1005.6
2022-09-04T11:28:28.021Z,1005.6
2022-09-04T11:29:44.259Z,1005.7
2022-09-04T11:31:00.502Z,1005.6
2022-09-04T11:32:16.730Z,1005.6
2022-09-04T11:33:32.966Z,1005.7
2022-09-04T11:34:48.238Z,1005.7
2022-09-04T11:36:04.477Z,1005.7
2022-09-04T11:37:20.702Z,1005.7
2022-09-04T11:38:36.947Z,1005.7
2022-09-04T11:39:53.195Z,1005.7
2022-09-04T11:41:09.421Z,1005.6
2022-09-04T11:42:25.654Z,1005.6
2022-09-04T11:43:41.893Z,1005.7
2022-09-04T11:44:58.138Z,1005.7
2022-09-04T11:46:14.371Z,1005.7
2022-09-04T11:47:30.629Z,1005.6
2022-09-04T11:48:46.865Z,1005.6
2022-09-04T11:50:03.106Z,1005.6
2022-09-04T11:51:18.345Z,1005.6
2022-09-04T11:52:34.600Z,1005.6
2022-09-04T11:53:50.821Z,1005.7
2022-09-04T11:55:07.063Z,1005.6
2022-09-04T11:56:23.000Z,1005.5
2022-09-04T11:57:39.553Z,1005.5
2022-09-04T11:58:55.783Z,1005.6
2022-09-04T12:00:12.015Z,1005.5
2022-09-04T12:01:28.271Z,1005.5
2022-09-04T12:02:44.506Z,1005.5
2022-09-04T12:04:00.749Z,1005.5
2022-09-04T12:05:16.977Z,1005.5
2022-09-04T12:06:33.229Z,1005.6
2022-09-04T12:07:48.469Z,1005.6
2022-09-04T12:09:04.712Z,1005.6
2022-09-04T12:10:20.946Z,1005.5
2022-09-04T12:11:37.198Z,1005.5
2022-09-04T12:12:53.436Z,1005.6
2022-09-04T12:14:09.662Z,1005.6
2022-09-04T12:15:25.921Z,1005.6
2022-09-04T12:16:42.147Z,1005.6
2022-09-04T12:17:58.391Z,1005.7
2022-09-04T12:19:14.637Z,1005.7
2022-09-04T12:20:30.864Z,1005.6
2022-09-04T12:21:47.103Z,1005.6
2022-09-04T12:23:03.356Z,1005.6
2022-09-04T12:24:18.610Z,1005.6
2022-09-04T12:25:34.834Z,1005.6
2022-09-04T12:26:51.077Z,1005.6
2022-09-04T12:28:07.328Z,1005.6
2022-09-04T12:29:23.554Z,1005.6
2022-09-04T12:30:39.805Z,1005.5
2022-09-04T12:31:56.039Z,1005.5
2022-09-04T12:33:12.271Z,1005.5
2022-09-04T12:34:28.517Z,1005.6
2022-09-04T12:35:44.763Z,1005.5
2022-09-04T12:37:01.002Z,1005.5
2022-09-04T12:38:17.231Z,1005.5
2022-09-04T12:39:33.479Z,1005.5
2022-09-04T12:40:48.732Z,1005.5
2022-09-04T12:42:04.966Z,1005.5
2022-09-04T12:43:21.205Z,1005.5
2022-09-04T12:44:37.444Z,1005.5
2022-09-04T12:45:53.687Z,1005.4
2022-09-04T12:47:09.932Z,1005.5
2022-09-04T12:48:26.157Z,1005.4
2022-09-04T12:49:42.392Z,1005.4
2022-09-04T12:50:58.630Z,1005.5
2022-09-04T12:52:14.874Z,1005.5
2022-09-04T12:53:31.124Z,1005.4
2022-09-04T12:54:47.348Z,1005.5
2022-09-04T12:56:03.599Z,1005.5
2022-09-04T12:57:18.858Z,1005.5
2022-09-04T12:58:35.094Z,1005.4
2022-09-04T12:59:51.328Z,1005.5
2022-09-04T13:01:07.579Z,1005.5
2022-09-04T13:02:23.803Z,1005.5
2022-09-04T13:03:40.058Z,1005.5
2022-09-04T13:04:56.292Z,1005.5
2022-09-04T13:06:12.524Z,1005.5
2022-09-04T13:07:28.766Z,1005.5
2022-09-04T13:08:45.005Z,1005.5
2022-09-04T13:10:01.237Z,1005.5
2022-09-04T13:11:17.488Z,1005.6
2022-09-04T13:12:33.727Z,1005.6
2022-09-04T13:13:48.983Z,1005.5
2022-09-04T13:15:05.214Z,1005.5
2022-09-04T13:16:21.459Z,1005.5
2022-09-04T13:17:37.694Z,1005.5
2022-09-04T13:18:53.941Z,1005.5
2022-09-04T13:20:10.184Z,1005.4
2022-09-04T13:21:26.418Z,1005.4
2022-09-04T13:22:42.642Z,1005.5
2022-09-04T13:23:58.899Z,1005.4
2022-09-04T13:25:15.138Z,1005.5
2022-09-04T13:26:31.363Z,1005.5
2022-09-04T13:27:47.601Z,1005.4
2022-09-04T13:29:03.843Z,1005.4
2022-09-04T13:30:19.108Z,1005.5
2022-09-04T13:31:35.348Z,1005.5
2022-09-04T13:32:51.586Z,1005.5
2022-09-04T13:34:07.827Z,1005.5
2022-09-04T13:35:24.063Z,1005.5
2022-09-04T13:36:40.298Z,1005.5
2022-09-04T13:37:56.530Z,1005.5
2022-09-04T13:39:12.774Z,1005.5
2022-09-04T13:40:29.026Z,1005.5
2022-09-04T13:41:45.248Z,1005.5
2022-09-04T13:43:01.490Z,1005.5
2022-09-04T13:44:17.725Z,1005.5
2022-09-04T13:45:33.974Z,1005.5
2022-09-04T13:46:49.235Z,1005.5
2022-09-04T13:48:05.457Z,1005.5
2022-09-04T13:49:21.714Z,1005.6
2022-09-04T13:50:37.947Z,1005.6
2022-09-04T13:51:54.193Z,1005.6
2022-09-04T13:53:10.420Z,1005.6
2022-09-04T13:54:26.652Z,1005.6
2022-09-04T13:55:42.890Z,1005.6
2022-09-04T13:56:59.132Z,1005.6
2022-09-04T13:58:15.376Z,1005.6
2022-09-04T13:59:31.627Z,1005.6
2022-09-04T14:00:47.860Z,1005.6
2022-09-04T14:02:04.086Z,1005.6
2022-09-04T14:03:19.356Z,1005.6
2022-09-04T14:04:35.599Z,1005.6
2022-09-04T14:05:51.839Z,1005.5
2022-09-04T14:07:08.060Z,1005.6
2022-09-04T14:08:24.310Z,1005.6
2022-09-04T14:09:40.549Z,1005.6
2022-09-04T14:10:55.817Z,1005.6
2022-09-04T14:12:12.044Z,1005.6
2022-09-04T14:13:28.277Z,1005.6
2022-09-04T14:14:44.526Z,1005.6
2022-09-04T14:16:00.758Z,1005.6
2022-09-04T14:17:17.001Z,1005.6
2022-09-04T14:18:33.235Z,1005.6
2022-09-04T14:19:49.487Z,1005.6
2022-09-04T14:21:05.719Z,1005.7
2022-09-04T14:22:21.968Z,1005.6
2022-09-04T14:23:38.199Z,1005.6
2022-09-04T14:24:54.445Z,1005.6
2022-09-04T14:26:10.675Z,1005.7
2022-09-04T14:27:25.933Z,1005.6
2022-09-04T14:28:42.164Z,1005.6
2022-09-04T14:29:58.404Z,1005.6
2022-09-04T14:31:14.652Z,1005.7
2022-09-04T14:32:30.877Z,1005.6
2022-09-04T14:33:47.126Z,1005.6
2022-09-04T14:35:03.356Z,1005.6
2022-09-04T14:36:19.595Z,1005.7
2022-09-04T14:37:35.844Z,1005.7
2022-09-04T14:38:52.083Z,1005.6
2022-09-04T14:40:08.322Z,1005.6
2022-09-04T14:41:24.566Z,1005.6
2022-09-04T14:42:40.791Z,1005.6
2022-09-04T14:43:56.049Z,1005.6
2022-09-04T14:45:12.294Z,1005.7
2022-09-04T14:46:28.541Z,1005.7
2022-09-04T14:47:44.775Z,1005.7
2022-09-04T14:49:01.002Z,1005.7
2022-09-04T14:50:17.254Z,1005.7
2022-09-04T14:51:33.489Z,1005.7
2022-09-04T14:52:49.721Z,1005.7
2022-09-04T14:54:05.970Z,1005.7
2022-09-04T14:55:22.203Z,1005.7
2022-09-04T14:56:38.438Z,1005.7
2022-09-04T14:57:54.689Z,1005.7
2022-09-04T14:59:10.925Z,1005.7
2022-09-04T15:00:26.182Z,1005.7
2022-09-04T15:01:42.420Z,1005.8
2022-09-04T15:02:58.653Z,1005.7
2022-09-04T15:04:14.892Z,1005.7
2022-09-04T15:05:31.137Z,1005.8
2022-09-04T15:06:47.375Z,1005.8
2022-09-04T15:08:03.599Z,1005.8
2022-09-04T15:09:19.838Z,1005.7
2022-09-04T15:10:36.082Z,1005.8
2022-09-04T15:11:52.325Z,1005.8
2022-09-04T15:13:08.553Z,1005.8
2022-09-04T15:14:24.812Z,1005.8
2022-09-04T15:15:41.040Z,1005.8
2022-09-04T15:16:56.288Z,1005.8
2022-09-04T15:18:12.541Z,1005.8
2022-09-04T15:19:28.780Z,1005.8
2022-09-04T15:20:45.011Z,1005.8
2022-09-04T15:22:01.254Z,1005.8
2022-09-04T15:23:17.499Z,1005.9
2022-09-04T15:24:33.730Z,1005.8
2022-09-04T15:25:49.938Z,1005.9
2022-09-04T15:27:06.172Z,1005.8
2022-09-04T15:28:22.427Z,1005.9
2022-09-04T15:29:38.663Z,1005.9
2022-09-04T15:30:54.897Z,1005.9
2022-09-04T15:32:11.141Z,1005.9
2022-09-04T15:33:26.387Z,1005.9
2022-09-04T15:34:42.622Z,1005.9
2022-09-04T15:35:58.874Z,1005.9
2022-09-04T15:37:15.106Z,1006
2022-09-04T15:38:31.334Z,1005.9
2022-09-04T15:39:47.586Z,1005.9
2022-09-04T15:41:03.825Z,1005.9
2022-09-04T15:42:20.051Z,1005.9
2022-09-04T15:43:36.305Z,1005.9
2022-09-04T15:44:52.533Z,1005.9
2022-09-04T15:46:08.781Z,1005.9
2022-09-04T15:47:25.012Z,1005.9
2022-09-04T15:48:41.257Z,1006
2022-09-04T15:49:56.512Z,1006
2022-09-04T15:51:12.734Z,1006
2022-09-04T15:52:28.979Z,1006.1
2022-09-04T15:53:45.218Z,1006
2022-09-04T15:55:01.450Z,1006
2022-09-04T15:56:17.696Z,1006